Historyczne dane pomiarowe

Dodano dane terminowe – wersja testowa.

Dane z okresu 1951-2019

Wersja bazy: 1.34 [2019-03-16, lista zmian], aktualizacja planowana na 2019-04-15

Dane meteo z obszaru Polski uzyskane na podstawie danych udostępnionych przez Instytut Meteorologii i Gospodarki Wodnej – Państwowy Instytut Badawczy.

 

Wybierz Datę:    

       

TemperaturaWilgotnośćZachmurzenieWiatrCiśnienieWidzialnośćZjawiska
 Data    tng td wb rh cc ccl cl cm ch dir g1 g2 mslp ppp      
1994-07-13 00:00:00 15.6--- 14.1 14.791wxwx0wx--1023.3 982.6 0.0---wx
1994-07-13 01:00:00 13.6--- 12.9 13.296wxwx0wx--1023.6 982.6----wx
1994-07-13 02:00:00 12.5--- 12.0 12.297wxwx0wx--1023.4 982.3----wx
1994-07-13 03:00:00 12.8--- 12.1 12.496wxwxwx0wx--1023.3 982.2----wx
1994-07-13 04:00:00 12.8--- 11.8 12.293wxwxwx0wx--1023.2 982.1----wx
1994-07-13 05:00:00 13.7--- 11.8 12.688wxwx2wx--1023.2 982.2----wx
1994-07-13 06:00:00 17.0--- 14.4 15.485wxwxwx0wx--1022.5 982.0 0.0---wx
1994-07-13 07:00:00 21.2--- 15.2 17.468wxwxwx0wx--1021.8 981.9----wx
1994-07-13 08:00:00 24.8--- 11.9 17.045wxwxwxwx6wx--1021.1 981.7----wx
1994-07-13 09:00:00 25.4--- 11.1 16.841wxwxwxwx5wx--1021.1 981.8----wx
1994-07-13 10:00:00 25.6--- 10.9 16.840wxwxwxwx5wx--1020.9 981.6----wx
1994-07-13 11:00:00 26.4--- 12.8 18.043wxwxwxwx4wx--1020.6 981.4----wx
1994-07-13 12:00:00 26.4--- 12.4 17.842wxwxwxwx4wx--1020.2 981.1 0.0---wx
1994-07-13 13:00:00 27.4--- 9.9 17.033wxwxwxwx4wx--1019.9 980.9----wx
1994-07-13 14:00:00 27.0--- 10.2 17.035wxwxwxwx2wx--1019.5 980.5----wx
1994-07-13 15:00:00 27.4--- 9.9 17.033wxwxwxwx2wx--1019.2 980.2----wx
1994-07-13 16:00:00 26.4--- 10.7 17.037wxwxwxwx1wx--1019.1 980.0----wx
1994-07-13 17:00:00 25.8--- 10.7 16.839wxwxwxwx1wx--1019.4 980.2----wx
1994-07-13 18:00:00 24.4--- 11.0 16.443wxwxwxwx3wx--1019.8 980.4 0.0---wx
1994-07-13 19:00:00 21.6--- 11.9 15.854wxwxwx0wx--1020.8 981.0----wx
1994-07-13 20:00:00 18.2--- 12.9 15.071wxwxwx0wx--1021.6 981.3----wx
1994-07-13 21:00:00 16.8--- 12.4 14.275wxwxwx0wx--1021.8 981.3----wx
1994-07-13 22:00:00 15.2--- 12.1 13.482wxwx0wx--1022.3 981.6----wx
1994-07-13 23:00:00 13.8--- 11.7 12.687wxwx0wx--1022.4 981.5----wx

 

Źródłem pochodzenia danych jest Instytut Meteorologii i Gospodarki Wodnej – Państwowy Instytut Badawczy. Dane Instytutu Meteorologii i Gospodarki Wodnej – Państwowego Instytutu Badawczego zostały przetworzone.

Dane źródłowe można odnaleźć na stronie https://dane.imgw.pl